This is the latest recevied weather packets stored in our database for station/object K1FFK-1. If no packets are shown the sender has not sent any weather packets the latest 1 day(s).
| Time | Temp. | Humidity | Pressure | Rain* | Wind** | Luminosity | Snow |
|---|---|---|---|---|---|---|---|
| 1778026895 | 12.78° C | 75% | 1013.7 hPa | 0 mm | 1.34 m/s, 196° | - | - |
| 1778026293 | 12.78° C | 78% | 1013.6 hPa | 0 mm | 1.34 m/s, 203° | - | - |
| 1778025694 | 12.22° C | 80% | 1013.7 hPa | 0 mm | 0.45 m/s, 258° | - | - |
| 1778025094 | 12.22° C | 83% | 1013.7 hPa | 0 mm | 1.34 m/s, 286° | - | - |
| 1778024493 | 12.22° C | 80% | 1013.5 hPa | 0 mm | 2.24 m/s, 310° | - | - |
| 1778023894 | 12.22° C | 84% | 1013.4 hPa | 0 mm | 4.47 m/s, 313° | - | - |
| 1778023294 | 11.67° C | 87% | 1013.2 hPa | 0 mm | 4.02 m/s, 315° | - | - |
| 1778022694 | 11.11° C | 93% | 1013.3 hPa | 0 mm | 3.58 m/s, 322° | - | - |
| 1778022094 | 11.11° C | 94% | 1013.5 hPa | 0 mm | 4.02 m/s, 316° | - | - |
| 1778021494 | 11.67° C | 95% | 1013.4 hPa | 0 mm | 4.47 m/s, 319° | - | - |
| 1778020894 | 13.33° C | 92% | 1013.2 hPa | 0 mm | 3.13 m/s, 323° | - | - |
| 1778020293 | 16.67° C | 56% | 1013.3 hPa | 0 mm | 1.34 m/s, 322° | - | - |
| 1778019694 | 16.67° C | 51% | 1012.7 hPa | 0 mm | 1.34 m/s, 213° | - | - |
| 1778019093 | 17.22° C | 52% | 1012.8 hPa | 0 mm | 1.79 m/s, 208° | - | - |
| 1778018495 | 17.22° C | 47% | 1012.6 hPa | 0 mm | 1.34 m/s, 198° | - | - |
| 1778017893 | 17.22° C | 47% | 1012.3 hPa | 0 mm | 1.79 m/s, 205° | - | - |
| 1778017294 | 17.78° C | 49% | 1012.6 hPa | 0 mm | 2.24 m/s, 192° | - | - |
| 1778016694 | 17.78° C | 48% | 1012.6 hPa | 0 mm | 1.79 m/s, 215° | - | - |
| 1778016093 | 18.33° C | 47% | 1012.5 hPa | 0 mm | 1.34 m/s, 210° | - | - |
| 1778015493 | 18.89° C | 46% | 1011.8 hPa | 0 mm | 2.68 m/s, 196° | - | - |
| 1778014893 | 19.44° C | 45% | 1011.9 hPa | 0 mm | 2.24 m/s, 202° | - | - |
| 1778014293 | 18.89° C | 47% | 1012.1 hPa | 0 mm | 1.79 m/s, 212° | - | - |
| 1778013694 | 18.89° C | 47% | 1012.3 hPa | 0 mm | 2.68 m/s, 209° | - | - |
| 1778013094 | 19.44° C | 48% | 1012.5 hPa | 0 mm | 2.24 m/s, 201° | - | - |
| 1778012494 | 18.89° C | 48% | 1012.4 hPa | 0 mm | 2.68 m/s, 216° | - | - |
* Rain latest hour (hover to see other rain measurements)
** Current wind speed in m/s (hover to see current wind gust speed)